createdAt,value
2022-12-12T00:01:22.164Z,80.32
2022-12-12T00:03:49.977Z,80.88
2022-12-12T00:06:17.907Z,80.30
2022-12-12T00:08:45.410Z,79.73
2022-12-12T00:11:13.440Z,78.12
2022-12-12T00:13:40.981Z,77.70
2022-12-12T00:16:09.423Z,78.98
2022-12-12T00:18:37.742Z,78.24
2022-12-12T00:21:16.286Z,80.42
2022-12-12T00:23:44.361Z,79.50
2022-12-12T00:26:23.849Z,78.68
2022-12-12T00:28:51.581Z,79.53
2022-12-12T00:31:19.177Z,78.73
2022-12-12T00:33:48.956Z,78.73
2022-12-12T00:36:18.960Z,79.12
2022-12-12T00:38:46.390Z,77.93
2022-12-12T00:41:13.737Z,80.27
2022-12-12T00:43:41.618Z,78.96
2022-12-12T00:46:09.327Z,80.34
2022-12-12T00:48:36.736Z,80.31
2022-12-12T00:51:10.120Z,79.26
2022-12-12T00:53:38.419Z,77.84
2022-12-12T00:56:06.478Z,79.16
2022-12-12T00:58:34.187Z,79.00
2022-12-12T01:01:06.442Z,79.29
2022-12-12T01:03:35.374Z,78.37
2022-12-12T01:06:03.129Z,78.19
2022-12-12T01:08:30.507Z,78.64
2022-12-12T01:10:58.165Z,78.74
2022-12-12T01:13:26.221Z,79.37
2022-12-12T01:15:53.686Z,80.76
2022-12-12T01:18:21.387Z,80.05
2022-12-12T01:20:48.714Z,80.47
2022-12-12T01:23:16.268Z,80.09
2022-12-12T01:25:43.964Z,79.14
2022-12-12T01:28:11.457Z,78.62
2022-12-12T01:30:38.897Z,79.72
2022-12-12T01:33:06.821Z,79.06
2022-12-12T01:35:34.553Z,79.62
2022-12-12T01:38:01.930Z,78.34
2022-12-12T01:40:31.345Z,80.14
2022-12-12T01:42:59.291Z,79.10
2022-12-12T01:45:57.679Z,78.80
2022-12-12T01:48:28.296Z,79.15
2022-12-12T01:50:56.662Z,78.16
2022-12-12T01:53:25.791Z,78.73
2022-12-12T01:55:53.952Z,78.42
2022-12-12T01:58:21.305Z,78.04
2022-12-12T02:00:48.681Z,79.34
2022-12-12T02:03:16.319Z,79.54
2022-12-12T02:05:48.036Z,79.95
2022-12-12T02:08:16.357Z,79.16
2022-12-12T02:10:44.823Z,78.99
2022-12-12T02:13:16.382Z,78.89
2022-12-12T02:15:54.116Z,78.62
2022-12-12T02:18:45.269Z,78.44
2022-12-12T02:21:50.407Z,79.25
2022-12-12T02:24:29.797Z,80.55
2022-12-12T02:26:57.859Z,80.46
2022-12-12T02:30:02.119Z,79.70
2022-12-12T02:32:44.762Z,79.49
2022-12-12T02:35:24.488Z,78.98
2022-12-12T02:38:30.687Z,78.80
2022-12-12T02:41:07.097Z,75.73
2022-12-12T02:44:08.207Z,78.38
2022-12-12T02:46:44.045Z,77.10
2022-12-12T02:49:17.802Z,75.81
2022-12-12T02:51:46.101Z,75.27
2022-12-12T02:54:16.411Z,72.64
2022-12-12T02:56:43.909Z,74.85
2022-12-12T02:59:18.836Z,74.28
2022-12-12T03:01:52.510Z,73.41
2022-12-12T03:05:05.863Z,74.10
2022-12-12T03:07:58.150Z,74.14
2022-12-12T03:10:52.535Z,73.66
2022-12-12T03:13:56.823Z,74.72
2022-12-12T03:16:35.495Z,73.03
2022-12-12T03:19:27.164Z,71.97
2022-12-12T03:22:05.528Z,72.68
2022-12-12T03:24:46.688Z,71.30
2022-12-12T03:27:17.848Z,71.44
2022-12-12T03:29:57.151Z,72.03
2022-12-12T03:32:30.947Z,71.95
2022-12-12T03:35:13.049Z,71.70
2022-12-12T03:37:49.272Z,71.15
2022-12-12T03:40:24.339Z,71.18
2022-12-12T03:43:09.397Z,70.54
2022-12-12T03:45:55.718Z,70.88
2022-12-12T03:48:31.616Z,70.68
2022-12-12T03:51:11.225Z,70.25
2022-12-12T03:53:59.528Z,69.11
2022-12-12T03:56:35.034Z,69.23
2022-12-12T03:59:12.716Z,68.71
2022-12-12T04:02:04.714Z,69.62
2022-12-12T04:05:01.455Z,68.82
2022-12-12T04:07:45.122Z,68.82
2022-12-12T04:10:31.473Z,67.16
2022-12-12T04:13:13.554Z,67.88
2022-12-12T04:15:41.349Z,68.30
2022-12-12T04:18:14.796Z,68.93
2022-12-12T04:21:09.853Z,68.47
2022-12-12T04:23:57.900Z,68.29
2022-12-12T04:26:42.390Z,68.03
2022-12-12T04:29:18.857Z,66.83
2022-12-12T04:32:04.660Z,66.10
2022-12-12T04:34:52.603Z,66.60
2022-12-12T04:37:23.826Z,65.92
2022-12-12T04:39:53.321Z,67.87
2022-12-12T04:42:23.190Z,66.36
2022-12-12T04:44:52.910Z,65.76
2022-12-12T04:47:20.810Z,65.26
2022-12-12T04:49:50.092Z,65.67
2022-12-12T04:52:18.803Z,65.03
2022-12-12T04:54:51.399Z,64.94
2022-12-12T04:57:28.782Z,63.54
2022-12-12T04:59:56.597Z,63.04
2022-12-12T05:02:45.817Z,63.04
2022-12-12T05:05:19.842Z,62.58
2022-12-12T05:07:52.810Z,64.19
2022-12-12T05:10:20.542Z,63.87
2022-12-12T05:12:50.370Z,64.63
2022-12-12T05:15:19.794Z,63.35
2022-12-12T05:17:50.557Z,64.98
2022-12-12T05:20:18.123Z,63.97
2022-12-12T05:22:45.467Z,64.17
2022-12-12T05:25:13.929Z,65.01
2022-12-12T05:27:41.560Z,65.96
2022-12-12T05:30:09.971Z,66.05
2022-12-12T05:32:37.618Z,65.55
2022-12-12T05:35:06.416Z,65.17
2022-12-12T05:37:33.792Z,64.78
2022-12-12T05:40:01.679Z,65.81
2022-12-12T05:42:30.188Z,65.38
2022-12-12T05:44:57.677Z,66.55
2022-12-12T05:47:25.329Z,65.31
2022-12-12T05:49:53.021Z,66.42
2022-12-12T05:52:20.432Z,65.63
2022-12-12T05:54:48.056Z,67.83
2022-12-12T05:57:17.256Z,66.52
2022-12-12T05:59:45.755Z,66.75
2022-12-12T06:02:14.701Z,64.69
2022-12-12T06:04:42.541Z,64.80
2022-12-12T06:07:09.903Z,64.87
2022-12-12T06:09:37.336Z,65.12
2022-12-12T06:12:05.262Z,66.38
2022-12-12T06:14:33.200Z,65.99
2022-12-12T06:17:00.621Z,65.02
2022-12-12T06:19:28.279Z,65.70
2022-12-12T06:21:55.697Z,63.35
2022-12-12T06:24:23.060Z,63.72
2022-12-12T06:26:50.991Z,63.36
2022-12-12T06:29:18.532Z,62.94
2022-12-12T06:31:45.883Z,63.91
2022-12-12T06:34:13.527Z,62.78
2022-12-12T06:36:41.217Z,65.49
2022-12-12T06:39:09.650Z,64.64
2022-12-12T06:41:37.506Z,65.84
2022-12-12T06:44:05.038Z,64.20
2022-12-12T06:46:32.665Z,65.14
2022-12-12T06:49:00.571Z,64.97
2022-12-12T06:51:31.952Z,64.21
2022-12-12T06:53:59.592Z,65.41
2022-12-12T06:56:27.417Z,64.10
2022-12-12T06:58:55.321Z,64.16
2022-12-12T07:01:23.681Z,64.56
2022-12-12T07:03:52.134Z,64.59
2022-12-12T07:06:21.517Z,64.51
2022-12-12T07:08:49.390Z,66.18
2022-12-12T07:11:19.810Z,65.23
2022-12-12T07:13:48.396Z,67.00
2022-12-12T07:16:16.452Z,66.28
2022-12-12T07:18:43.922Z,66.80
2022-12-12T07:21:13.749Z,66.59
2022-12-12T07:23:41.707Z,66.64
2022-12-12T07:26:13.267Z,67.60
2022-12-12T07:28:41.731Z,67.27
2022-12-12T07:31:12.867Z,66.28
2022-12-12T07:33:44.141Z,66.05
2022-12-12T07:36:13.164Z,66.38
2022-12-12T07:38:41.253Z,66.92
2022-12-12T07:41:11.624Z,65.39
2022-12-12T07:43:43.893Z,66.73
2022-12-12T07:46:16.110Z,64.78
2022-12-12T07:48:43.990Z,64.24
2022-12-12T07:51:12.434Z,63.17
2022-12-12T07:53:39.913Z,63.82
2022-12-12T07:56:09.061Z,62.37
2022-12-12T07:58:37.337Z,63.51
2022-12-12T08:01:17.183Z,63.30
2022-12-12T08:03:46.182Z,63.57
2022-12-12T08:06:14.019Z,62.92
2022-12-12T08:08:42.001Z,62.59
2022-12-12T08:11:11.473Z,64.50
2022-12-12T08:13:39.770Z,63.45
2022-12-12T08:16:13.333Z,62.31
2022-12-12T08:18:41.086Z,60.72
2022-12-12T08:21:10.780Z,60.89
2022-12-12T08:23:38.923Z,61.44
2022-12-12T08:26:09.453Z,59.35
2022-12-12T08:28:37.153Z,61.85
2022-12-12T08:31:04.867Z,58.64
2022-12-12T08:33:32.535Z,55.13
2022-12-12T08:36:00.242Z,58.05
2022-12-12T08:38:28.966Z,57.84
2022-12-12T08:40:56.594Z,57.16
2022-12-12T08:43:23.950Z,57.38
2022-12-12T08:45:51.295Z,56.22
2022-12-12T08:48:18.913Z,54.84
2022-12-12T08:50:46.268Z,53.57
2022-12-12T08:53:13.680Z,53.99
2022-12-12T08:55:41.289Z,52.30
2022-12-12T08:58:08.680Z,52.08
2022-12-12T09:00:36.584Z,50.61
2022-12-12T09:03:04.530Z,51.08
2022-12-12T09:05:31.968Z,48.81
2022-12-12T09:07:59.756Z,50.56
2022-12-12T09:10:28.184Z,50.92
2022-12-12T09:12:55.771Z,52.31
2022-12-12T09:15:23.123Z,50.81
2022-12-12T09:17:50.780Z,52.08
2022-12-12T09:20:18.267Z,50.69
2022-12-12T09:22:45.896Z,51.85
2022-12-12T09:25:13.943Z,53.50
2022-12-12T09:27:41.472Z,54.81
2022-12-12T09:30:09.748Z,55.81
2022-12-12T09:32:37.851Z,54.78
2022-12-12T09:35:05.825Z,55.12
2022-12-12T09:37:33.732Z,55.48
2022-12-12T09:40:01.770Z,57.45
2022-12-12T09:42:31.776Z,57.29
2022-12-12T09:45:03.895Z,55.50
2022-12-12T09:47:45.004Z,54.61
2022-12-12T09:50:37.886Z,56.65
2022-12-12T09:53:12.539Z,56.50
2022-12-12T09:55:55.201Z,56.94
2022-12-12T09:58:26.770Z,57.45
2022-12-12T10:01:00.447Z,54.97
2022-12-12T10:03:30.504Z,55.62
2022-12-12T10:06:35.865Z,57.09
2022-12-12T10:09:31.556Z,58.23
2022-12-12T10:12:04.901Z,56.67
2022-12-12T10:14:39.565Z,56.05
2022-12-12T10:17:15.889Z,58.47
2022-12-12T10:19:53.623Z,57.77
2022-12-12T10:22:42.193Z,56.38
2022-12-12T10:25:21.256Z,57.32
2022-12-12T10:28:08.728Z,55.09
2022-12-12T10:31:01.907Z,55.46
2022-12-12T10:33:54.509Z,55.35
2022-12-12T10:36:40.519Z,54.49
2022-12-12T10:39:44.379Z,53.77
2022-12-12T10:42:12.666Z,55.22
2022-12-12T10:44:54.557Z,53.63
2022-12-12T10:47:22.280Z,55.14
2022-12-12T10:49:52.846Z,52.51
2022-12-12T10:52:22.067Z,54.41
2022-12-12T10:54:58.443Z,54.87
2022-12-12T10:57:34.379Z,53.96
2022-12-12T11:00:17.383Z,54.28
2022-12-12T11:02:45.096Z,55.14
2022-12-12T11:05:23.090Z,54.08
2022-12-12T11:08:00.649Z,55.42
2022-12-12T11:10:34.547Z,53.38
2022-12-12T11:13:11.258Z,54.43
2022-12-12T11:15:40.104Z,52.47
2022-12-12T11:18:15.153Z,52.88
2022-12-12T11:20:50.636Z,54.48
2022-12-12T11:23:26.880Z,54.20
2022-12-12T11:25:57.429Z,53.56
2022-12-12T11:28:27.578Z,55.43
2022-12-12T11:30:56.176Z,55.38
2022-12-12T11:33:32.682Z,56.15
2022-12-12T11:36:02.014Z,55.88
2022-12-12T11:38:41.065Z,54.64
2022-12-12T11:41:10.550Z,56.65
2022-12-12T11:43:50.100Z,54.93
2022-12-12T11:46:19.882Z,53.31
2022-12-12T11:48:56.395Z,55.03
2022-12-12T11:51:33.611Z,52.76
2022-12-12T11:54:02.830Z,54.97
2022-12-12T11:57:02.247Z,54.91
2022-12-12T12:00:00.357Z,55.75
2022-12-12T12:02:49.270Z,56.90
2022-12-12T12:05:41.577Z,56.29
2022-12-12T12:08:28.936Z,58.83
2022-12-12T12:11:25.061Z,60.73
2022-12-12T12:14:30.077Z,62.39
2022-12-12T12:17:02.981Z,62.15
2022-12-12T12:19:48.704Z,64.32
2022-12-12T12:22:35.669Z,62.57
2022-12-12T12:25:16.113Z,64.07
2022-12-12T12:27:53.615Z,64.47
2022-12-12T12:30:25.834Z,63.80
2022-12-12T12:33:12.007Z,63.93
2022-12-12T12:35:52.860Z,65.74
2022-12-12T12:38:36.105Z,65.34
2022-12-12T12:41:16.802Z,65.39
2022-12-12T12:44:03.416Z,66.34
2022-12-12T12:46:36.372Z,65.81
2022-12-12T12:49:11.514Z,65.80
2022-12-12T12:51:46.995Z,64.60
2022-12-12T12:54:25.947Z,66.04
2022-12-12T12:57:01.104Z,66.84
2022-12-12T12:59:34.173Z,65.38
2022-12-12T13:02:10.848Z,64.10
2022-12-12T13:04:45.568Z,65.41
2022-12-12T13:07:45.424Z,65.22
2022-12-12T13:10:25.894Z,64.59
2022-12-12T13:13:01.707Z,63.56
2022-12-12T13:15:33.558Z,63.49
2022-12-12T13:18:21.538Z,63.21
2022-12-12T13:21:21.562Z,63.29
2022-12-12T13:24:15.288Z,63.43
2022-12-12T13:26:52.617Z,62.93
2022-12-12T13:29:53.746Z,61.11
2022-12-12T13:32:33.507Z,63.11
2022-12-12T13:35:05.110Z,61.60
2022-12-12T13:37:36.500Z,62.58
2022-12-12T13:40:06.812Z,61.57
2022-12-12T13:42:55.467Z,61.21
2022-12-12T13:45:31.893Z,61.96
2022-12-12T13:48:02.170Z,60.19
2022-12-12T13:50:29.996Z,61.44
2022-12-12T13:53:17.566Z,60.54
2022-12-12T13:55:45.284Z,62.80
2022-12-12T13:58:33.639Z,62.81
2022-12-12T14:01:40.442Z,61.23
2022-12-12T14:04:39.730Z,62.04
2022-12-12T14:07:16.915Z,62.23
2022-12-12T14:09:50.109Z,62.40
2022-12-12T14:12:30.654Z,61.82
2022-12-12T14:15:02.643Z,62.29
2022-12-12T14:17:38.330Z,62.62
2022-12-12T14:20:24.414Z,63.19
2022-12-12T14:22:51.666Z,62.69
2022-12-12T14:25:21.049Z,64.04
2022-12-12T14:27:49.109Z,65.17
2022-12-12T14:30:18.276Z,64.98
2022-12-12T14:33:05.964Z,64.87
2022-12-12T14:35:54.322Z,64.23
2022-12-12T14:38:34.845Z,65.43
2022-12-12T14:41:04.994Z,63.83
2022-12-12T14:43:37.470Z,63.98
2022-12-12T14:46:05.384Z,62.88
2022-12-12T14:48:33.904Z,64.78
2022-12-12T14:51:10.281Z,63.09
2022-12-12T14:53:37.805Z,63.96
2022-12-12T14:56:14.766Z,62.99
2022-12-12T14:58:46.145Z,63.03
2022-12-12T15:01:15.683Z,63.60
2022-12-12T15:03:46.796Z,63.99
2022-12-12T15:06:26.388Z,63.22
2022-12-12T15:08:55.805Z,63.40
2022-12-12T15:11:26.438Z,63.88
2022-12-12T15:13:57.954Z,64.18
2022-12-12T15:16:27.498Z,62.54
2022-12-12T15:18:56.204Z,62.93
2022-12-12T15:21:23.849Z,63.63
2022-12-12T15:23:51.512Z,62.63
2022-12-12T15:26:22.954Z,62.92
2022-12-12T15:28:50.366Z,64.07
2022-12-12T15:31:19.256Z,63.62
2022-12-12T15:33:47.697Z,62.96
2022-12-12T15:36:26.467Z,62.92
2022-12-12T15:39:16.136Z,62.55
2022-12-12T15:41:44.226Z,63.19
2022-12-12T15:44:18.451Z,62.46
2022-12-12T15:46:47.809Z,62.15
2022-12-12T15:49:35.131Z,62.75
2022-12-12T15:52:19.849Z,62.69
2022-12-12T15:54:48.499Z,62.38
2022-12-12T15:57:18.047Z,61.82
2022-12-12T15:59:45.930Z,62.36
2022-12-12T16:02:27.159Z,62.66
2022-12-12T16:05:17.816Z,63.33
2022-12-12T16:07:45.835Z,63.50
2022-12-12T16:10:13.558Z,65.30
2022-12-12T16:13:02.451Z,64.25
2022-12-12T16:15:35.662Z,64.40
2022-12-12T16:18:16.771Z,64.08
2022-12-12T16:20:55.467Z,63.27
2022-12-12T16:23:30.131Z,64.06
2022-12-12T16:25:58.321Z,63.57
2022-12-12T16:28:27.825Z,65.85
2022-12-12T16:31:00.996Z,65.03
2022-12-12T16:33:36.073Z,65.16
2022-12-12T16:36:04.931Z,64.26
2022-12-12T16:38:33.106Z,64.47
2022-12-12T16:41:09.165Z,63.87
2022-12-12T16:43:38.452Z,63.68
2022-12-12T16:46:06.379Z,63.94
2022-12-12T16:48:35.993Z,64.17
2022-12-12T16:51:08.757Z,63.16
2022-12-12T16:53:37.024Z,63.84
2022-12-12T16:56:05.098Z,63.73
2022-12-12T16:58:34.045Z,63.48
2022-12-12T17:01:02.808Z,61.33
2022-12-12T17:03:32.828Z,62.15
2022-12-12T17:06:00.261Z,63.15
2022-12-12T17:08:27.908Z,62.63
2022-12-12T17:11:10.132Z,61.96
2022-12-12T17:13:48.073Z,62.88
2022-12-12T17:16:15.901Z,64.11
2022-12-12T17:18:43.779Z,62.73
2022-12-12T17:21:11.190Z,61.86
2022-12-12T17:23:40.245Z,61.20
2022-12-12T17:26:07.652Z,61.48
2022-12-12T17:28:36.232Z,62.36
2022-12-12T17:31:08.561Z,63.08
2022-12-12T17:33:46.197Z,62.85
2022-12-12T17:36:19.784Z,63.68
2022-12-12T17:38:47.976Z,62.58
2022-12-12T17:41:15.632Z,62.82
2022-12-12T17:43:43.243Z,63.45
2022-12-12T17:46:15.747Z,63.70
2022-12-12T17:48:47.463Z,62.10
2022-12-12T17:51:18.257Z,62.88
2022-12-12T17:53:46.342Z,62.29
2022-12-12T17:56:16.824Z,62.84
2022-12-12T17:58:46.530Z,65.00
2022-12-12T18:01:16.169Z,63.93
2022-12-12T18:03:44.875Z,63.99
2022-12-12T18:06:13.141Z,64.06
2022-12-12T18:08:41.389Z,64.62
2022-12-12T18:11:11.380Z,65.81
2022-12-12T18:13:40.160Z,64.78
2022-12-12T18:16:09.281Z,66.52
2022-12-12T18:18:37.516Z,68.50
2022-12-12T18:21:07.197Z,65.67
2022-12-12T18:23:35.433Z,65.74
2022-12-12T18:26:09.517Z,64.95
2022-12-12T18:28:38.132Z,62.96
2022-12-12T18:31:07.330Z,64.89
2022-12-12T18:33:36.320Z,65.13
2022-12-12T18:36:06.865Z,62.81
2022-12-12T18:38:36.298Z,63.39
2022-12-12T18:41:06.268Z,65.34
2022-12-12T18:43:34.583Z,64.16
2022-12-12T18:46:14.128Z,63.14
2022-12-12T18:48:43.710Z,62.49
2022-12-12T18:51:24.408Z,62.58
2022-12-12T18:53:53.801Z,62.94
2022-12-12T18:56:28.012Z,62.72
2022-12-12T18:58:57.666Z,64.08
2022-12-12T19:01:31.081Z,65.18
2022-12-12T19:04:07.364Z,65.17
2022-12-12T19:06:42.094Z,66.80
2022-12-12T19:09:19.054Z,65.92
2022-12-12T19:11:52.410Z,66.77
2022-12-12T19:14:22.699Z,65.95
2022-12-12T19:16:51.641Z,65.65
2022-12-12T19:19:20.327Z,66.74
2022-12-12T19:21:48.937Z,67.28
2022-12-12T19:24:16.948Z,65.98
2022-12-12T19:26:45.480Z,65.86
2022-12-12T19:29:18.016Z,66.04
2022-12-12T19:31:47.660Z,65.97
2022-12-12T19:37:02.616Z,67.91
2022-12-12T19:39:32.185Z,71.59
2022-12-12T19:42:01.385Z,71.06
2022-12-12T19:44:32.839Z,69.21
2022-12-12T19:47:02.211Z,68.68
2022-12-12T19:49:31.468Z,68.46
2022-12-12T19:52:00.067Z,68.67
2022-12-12T19:54:28.743Z,67.85
2022-12-12T19:56:59.913Z,68.58
2022-12-12T19:59:28.514Z,68.25
2022-12-12T20:02:00.570Z,68.34
2022-12-12T20:04:31.232Z,69.53
2022-12-12T20:06:59.787Z,70.30
2022-12-12T20:09:32.507Z,69.12
2022-12-12T20:12:03.271Z,68.85
2022-12-12T20:14:36.183Z,68.58
2022-12-12T20:17:05.307Z,68.62
2022-12-12T20:19:33.435Z,68.53
2022-12-12T20:22:03.131Z,68.50
2022-12-12T20:24:34.999Z,69.20
2022-12-12T20:27:04.868Z,69.78
2022-12-12T20:29:33.881Z,69.40
2022-12-12T20:32:05.213Z,69.57
2022-12-12T20:34:33.841Z,68.87
2022-12-12T20:37:03.063Z,69.79
2022-12-12T20:39:32.722Z,69.48
2022-12-12T20:42:01.286Z,68.92
2022-12-12T20:44:30.444Z,70.46
2022-12-12T20:47:00.450Z,69.87
2022-12-12T20:49:30.381Z,68.93
2022-12-12T20:51:59.567Z,69.38
2022-12-12T20:54:28.985Z,71.06
2022-12-12T20:56:58.733Z,71.73
2022-12-12T20:59:27.061Z,70.12
2022-12-12T21:01:55.520Z,69.10
2022-12-12T21:04:25.389Z,69.91
2022-12-12T21:06:53.228Z,69.19
2022-12-12T21:09:25.842Z,70.06
2022-12-12T21:11:56.308Z,69.41
2022-12-12T21:14:24.837Z,70.86
2022-12-12T21:16:52.887Z,71.07
2022-12-12T21:19:22.055Z,71.25
2022-12-12T21:21:49.746Z,71.01
2022-12-12T21:24:18.020Z,69.62
2022-12-12T21:26:46.711Z,70.05
2022-12-12T21:29:15.457Z,70.12
2022-12-12T21:31:50.227Z,70.80
2022-12-12T21:34:21.195Z,70.03
2022-12-12T21:36:53.281Z,68.68
2022-12-12T21:39:23.152Z,70.33
2022-12-12T21:41:51.475Z,70.94
2022-12-12T21:44:20.222Z,69.96
2022-12-12T21:46:48.401Z,69.62
2022-12-12T21:49:28.434Z,69.19
2022-12-12T21:52:05.207Z,72.14
2022-12-12T21:54:32.849Z,70.58
2022-12-12T21:57:01.217Z,69.49
2022-12-12T21:59:29.175Z,70.86
2022-12-12T22:01:58.576Z,70.77
2022-12-12T22:04:26.605Z,69.30
2022-12-12T22:06:54.257Z,70.74
2022-12-12T22:09:21.594Z,71.71
2022-12-12T22:11:49.682Z,70.81
2022-12-12T22:14:18.754Z,71.38
2022-12-12T22:16:46.438Z,73.57
2022-12-12T22:19:15.757Z,73.38
2022-12-12T22:21:48.487Z,72.60
2022-12-12T22:24:17.284Z,73.81
2022-12-12T22:26:49.904Z,73.25
2022-12-12T22:29:20.087Z,72.33
2022-12-12T22:31:50.236Z,71.31
2022-12-12T22:34:23.552Z,71.11
2022-12-12T22:36:51.913Z,73.74
2022-12-12T22:39:24.525Z,73.52
2022-12-12T22:41:53.118Z,73.76
2022-12-12T22:44:22.611Z,74.19
2022-12-12T22:46:52.069Z,75.23
2022-12-12T22:49:22.557Z,75.27
2022-12-12T22:51:50.278Z,74.29
2022-12-12T22:54:18.184Z,72.68
2022-12-12T22:56:45.537Z,73.10
2022-12-12T22:59:13.634Z,74.85
2022-12-12T23:01:41.545Z,73.39
2022-12-12T23:04:14.126Z,73.71
2022-12-12T23:06:42.892Z,74.43
2022-12-12T23:09:22.247Z,74.31
2022-12-12T23:11:49.935Z,73.05
2022-12-12T23:14:21.559Z,76.45
2022-12-12T23:16:50.293Z,77.45
2022-12-12T23:19:20.175Z,74.92
2022-12-12T23:21:47.872Z,75.86
2022-12-12T23:24:15.621Z,77.96
2022-12-12T23:26:43.349Z,74.33
2022-12-12T23:29:16.074Z,77.38
2022-12-12T23:31:44.451Z,75.81
2022-12-12T23:34:20.532Z,76.03
2022-12-12T23:36:49.285Z,74.15
2022-12-12T23:39:17.175Z,74.27
2022-12-12T23:41:44.799Z,75.57
2022-12-12T23:44:13.835Z,77.83
2022-12-12T23:46:41.509Z,77.07
2022-12-12T23:49:11.886Z,74.48
2022-12-12T23:51:44.095Z,74.61
2022-12-12T23:54:14.419Z,75.89
2022-12-12T23:56:42.352Z,75.18
2022-12-12T23:59:15.520Z,74.26
